sensor_id;sensor_type;location;lat;lon;timestamp;P1;durP1;ratioP1;P2;durP2;ratioP2
64678;SDS011;51094;53.864;27.676;2022-10-14T00:00:08;5.00;;;4.90;;
64678;SDS011;51094;53.864;27.676;2022-10-14T00:02:38;5.28;;;5.07;;
64678;SDS011;51094;53.864;27.676;2022-10-14T00:05:05;5.03;;;4.93;;
64678;SDS011;51094;53.864;27.676;2022-10-14T00:07:32;5.00;;;4.90;;
64678;SDS011;51094;53.864;27.676;2022-10-14T00:09:58;5.15;;;5.05;;
64678;SDS011;51094;53.864;27.676;2022-10-14T00:12:25;5.32;;;5.22;;
64678;SDS011;51094;53.864;27.676;2022-10-14T00:14:52;5.07;;;4.97;;
64678;SDS011;51094;53.864;27.676;2022-10-14T00:17:19;4.95;;;4.85;;
64678;SDS011;51094;53.864;27.676;2022-10-14T00:19:48;5.45;;;5.35;;
64678;SDS011;51094;53.864;27.676;2022-10-14T00:22:14;5.60;;;5.47;;
64678;SDS011;51094;53.864;27.676;2022-10-14T00:24:41;5.65;;;5.55;;
64678;SDS011;51094;53.864;27.676;2022-10-14T00:27:08;5.75;;;5.55;;
64678;SDS011;51094;53.864;27.676;2022-10-14T00:29:35;5.68;;;5.57;;
64678;SDS011;51094;53.864;27.676;2022-10-14T00:32:01;5.82;;;5.63;;
64678;SDS011;51094;53.864;27.676;2022-10-14T00:34:28;5.80;;;5.70;;
64678;SDS011;51094;53.864;27.676;2022-10-14T00:36:58;5.50;;;5.40;;
64678;SDS011;51094;53.864;27.676;2022-10-14T00:39:24;5.38;;;5.18;;
64678;SDS011;51094;53.864;27.676;2022-10-14T00:41:54;5.80;;;5.60;;
64678;SDS011;51094;53.864;27.676;2022-10-14T00:46:59;5.55;;;5.40;;
64678;SDS011;51094;53.864;27.676;2022-10-14T00:49:26;5.07;;;4.93;;
64678;SDS011;51094;53.864;27.676;2022-10-14T00:52:01;4.95;;;4.85;;
64678;SDS011;51094;53.864;27.676;2022-10-14T00:54:34;5.38;;;5.18;;
64678;SDS011;51094;53.864;27.676;2022-10-14T00:57:05;4.93;;;4.80;;
64678;SDS011;51094;53.864;27.676;2022-10-14T00:59:34;4.93;;;4.82;;
64678;SDS011;51094;53.864;27.676;2022-10-14T01:02:02;5.68;;;5.47;;
64678;SDS011;51094;53.864;27.676;2022-10-14T01:04:29;4.78;;;4.68;;
64678;SDS011;51094;53.864;27.676;2022-10-14T01:07:05;4.72;;;4.53;;
64678;SDS011;51094;53.864;27.676;2022-10-14T01:09:40;4.53;;;4.43;;
64678;SDS011;51094;53.864;27.676;2022-10-14T01:12:35;4.30;;;4.20;;
64678;SDS011;51094;53.864;27.676;2022-10-14T01:18:03;4.18;;;4.07;;
64678;SDS011;51094;53.864;27.676;2022-10-14T01:31:29;5.05;;;4.93;;
64678;SDS011;51094;53.864;27.676;2022-10-14T01:34:03;4.35;;;4.25;;
64678;SDS011;51094;53.864;27.676;2022-10-14T01:36:34;4.45;;;4.35;;
64678;SDS011;51094;53.864;27.676;2022-10-14T01:39:07;4.20;;;4.10;;
64678;SDS011;51094;53.864;27.676;2022-10-14T01:41:42;4.15;;;4.05;;
64678;SDS011;51094;53.864;27.676;2022-10-14T01:44:12;4.00;;;3.90;;
64678;SDS011;51094;53.864;27.676;2022-10-14T01:46:43;4.40;;;4.30;;
64678;SDS011;51094;53.864;27.676;2022-10-14T01:49:18;4.40;;;4.30;;
64678;SDS011;51094;53.864;27.676;2022-10-14T01:52:01;4.70;;;4.60;;
64678;SDS011;51094;53.864;27.676;2022-10-14T01:54:34;5.03;;;4.82;;
64678;SDS011;51094;53.864;27.676;2022-10-14T01:57:10;4.53;;;4.43;;
64678;SDS011;51094;53.864;27.676;2022-10-14T01:59:41;4.47;;;4.38;;
64678;SDS011;51094;53.864;27.676;2022-10-14T02:02:10;4.63;;;4.53;;
64678;SDS011;51094;53.864;27.676;2022-10-14T02:04:39;4.30;;;4.20;;
64678;SDS011;51094;53.864;27.676;2022-10-14T02:07:07;4.70;;;4.60;;
64678;SDS011;51094;53.864;27.676;2022-10-14T02:09:49;4.78;;;4.68;;
64678;SDS011;51094;53.864;27.676;2022-10-14T02:15:26;4.03;;;3.92;;
64678;SDS011;51094;53.864;27.676;2022-10-14T02:18:19;3.95;;;3.85;;
64678;SDS011;51094;53.864;27.676;2022-10-14T02:20:55;4.28;;;4.18;;
64678;SDS011;51094;53.864;27.676;2022-10-14T02:23:38;4.38;;;4.28;;
64678;SDS011;51094;53.864;27.676;2022-10-14T02:26:10;3.80;;;3.70;;
64678;SDS011;51094;53.864;27.676;2022-10-14T02:28:37;4.18;;;4.07;;
64678;SDS011;51094;53.864;27.676;2022-10-14T02:31:09;3.92;;;3.83;;
64678;SDS011;51094;53.864;27.676;2022-10-14T02:33:46;4.35;;;4.25;;
64678;SDS011;51094;53.864;27.676;2022-10-14T02:36:18;4.13;;;4.03;;
64678;SDS011;51094;53.864;27.676;2022-10-14T02:38:48;3.95;;;3.85;;
64678;SDS011;51094;53.864;27.676;2022-10-14T02:41:16;4.25;;;4.15;;
64678;SDS011;51094;53.864;27.676;2022-10-14T02:43:45;3.77;;;3.67;;
64678;SDS011;51094;53.864;27.676;2022-10-14T02:46:11;4.10;;;4.00;;
64678;SDS011;51094;53.864;27.676;2022-10-14T02:48:39;4.25;;;4.15;;
64678;SDS011;51094;53.864;27.676;2022-10-14T02:51:05;4.00;;;3.90;;
64678;SDS011;51094;53.864;27.676;2022-10-14T02:53:32;3.80;;;3.70;;
64678;SDS011;51094;53.864;27.676;2022-10-14T02:55:58;4.28;;;4.18;;
64678;SDS011;51094;53.864;27.676;2022-10-14T02:58:25;4.28;;;4.18;;
64678;SDS011;51094;53.864;27.676;2022-10-14T03:00:54;3.80;;;3.70;;
64678;SDS011;51094;53.864;27.676;2022-10-14T03:03:23;4.18;;;4.07;;
64678;SDS011;51094;53.864;27.676;2022-10-14T03:05:49;4.18;;;4.07;;
64678;SDS011;51094;53.864;27.676;2022-10-14T03:08:16;3.80;;;3.70;;
64678;SDS011;51094;53.864;27.676;2022-10-14T03:10:44;4.55;;;4.45;;
64678;SDS011;51094;53.864;27.676;2022-10-14T03:13:14;4.80;;;4.70;;
64678;SDS011;51094;53.864;27.676;2022-10-14T03:18:13;4.90;;;4.80;;
64678;SDS011;51094;53.864;27.676;2022-10-14T03:20:43;5.50;;;5.40;;
64678;SDS011;51094;53.864;27.676;2022-10-14T03:23:12;5.32;;;5.22;;
64678;SDS011;51094;53.864;27.676;2022-10-14T03:25:44;5.07;;;4.97;;
64678;SDS011;51094;53.864;27.676;2022-10-14T03:28:33;5.07;;;4.97;;
64678;SDS011;51094;53.864;27.676;2022-10-14T03:31:09;4.60;;;4.50;;
64678;SDS011;51094;53.864;27.676;2022-10-14T03:33:51;4.53;;;4.43;;
64678;SDS011;51094;53.864;27.676;2022-10-14T03:36:18;4.35;;;4.25;;
64678;SDS011;51094;53.864;27.676;2022-10-14T03:38:49;4.30;;;4.20;;
64678;SDS011;51094;53.864;27.676;2022-10-14T03:41:29;4.38;;;4.28;;
64678;SDS011;51094;53.864;27.676;2022-10-14T03:43:56;4.05;;;3.95;;
64678;SDS011;51094;53.864;27.676;2022-10-14T03:46:23;3.90;;;3.80;;
64678;SDS011;51094;53.864;27.676;2022-10-14T03:48:51;3.60;;;3.50;;
64678;SDS011;51094;53.864;27.676;2022-10-14T03:51:18;3.33;;;3.22;;
64678;SDS011;51094;53.864;27.676;2022-10-14T03:53:45;3.38;;;3.28;;
64678;SDS011;51094;53.864;27.676;2022-10-14T03:56:16;4.38;;;4.28;;
64678;SDS011;51094;53.864;27.676;2022-10-14T03:58:44;3.88;;;3.78;;
64678;SDS011;51094;53.864;27.676;2022-10-14T04:01:12;3.42;;;3.33;;
64678;SDS011;51094;53.864;27.676;2022-10-14T04:03:59;3.55;;;3.45;;
64678;SDS011;51094;53.864;27.676;2022-10-14T04:06:26;3.20;;;3.15;;
64678;SDS011;51094;53.864;27.676;2022-10-14T04:08:56;3.20;;;3.10;;
64678;SDS011;51094;53.864;27.676;2022-10-14T04:11:28;3.00;;;3.00;;
64678;SDS011;51094;53.864;27.676;2022-10-14T04:14:01;3.28;;;3.20;;
64678;SDS011;51094;53.864;27.676;2022-10-14T04:16:30;3.40;;;3.30;;
64678;SDS011;51094;53.864;27.676;2022-10-14T04:19:05;4.10;;;4.00;;
64678;SDS011;51094;53.864;27.676;2022-10-14T04:21:32;3.40;;;3.30;;
64678;SDS011;51094;53.864;27.676;2022-10-14T04:23:58;3.60;;;3.50;;
64678;SDS011;51094;53.864;27.676;2022-10-14T04:26:48;3.33;;;3.30;;
64678;SDS011;51094;53.864;27.676;2022-10-14T04:29:25;3.40;;;3.30;;
64678;SDS011;51094;53.864;27.676;2022-10-14T04:31:59;2.97;;;2.97;;
64678;SDS011;51094;53.864;27.676;2022-10-14T04:34:25;3.47;;;3.40;;
64678;SDS011;51094;53.864;27.676;2022-10-14T04:36:52;3.38;;;3.28;;
64678;SDS011;51094;53.864;27.676;2022-10-14T04:39:35;3.50;;;3.42;;
64678;SDS011;51094;53.864;27.676;2022-10-14T04:42:04;3.40;;;3.30;;
64678;SDS011;51094;53.864;27.676;2022-10-14T04:44:30;3.47;;;3.38;;
64678;SDS011;51094;53.864;27.676;2022-10-14T04:47:00;3.47;;;3.38;;
64678;SDS011;51094;53.864;27.676;2022-10-14T04:49:27;3.80;;;3.70;;
64678;SDS011;51094;53.864;27.676;2022-10-14T04:52:15;3.10;;;3.00;;
64678;SDS011;51094;53.864;27.676;2022-10-14T04:54:48;3.40;;;3.30;;
64678;SDS011;51094;53.864;27.676;2022-10-14T04:57:23;3.33;;;3.22;;
64678;SDS011;51094;53.864;27.676;2022-10-14T04:59:50;3.83;;;3.72;;
64678;SDS011;51094;53.864;27.676;2022-10-14T05:03:03;3.13;;;3.10;;
64678;SDS011;51094;53.864;27.676;2022-10-14T05:05:34;3.45;;;3.35;;
64678;SDS011;51094;53.864;27.676;2022-10-14T05:08:03;3.90;;;3.80;;
64678;SDS011;51094;53.864;27.676;2022-10-14T05:10:39;3.40;;;3.30;;
64678;SDS011;51094;53.864;27.676;2022-10-14T05:13:09;3.70;;;3.60;;
64678;SDS011;51094;53.864;27.676;2022-10-14T05:15:47;3.80;;;3.70;;
64678;SDS011;51094;53.864;27.676;2022-10-14T05:18:14;3.42;;;3.33;;
64678;SDS011;51094;53.864;27.676;2022-10-14T05:20:59;3.30;;;3.20;;
64678;SDS011;51094;53.864;27.676;2022-10-14T05:23:40;3.75;;;3.65;;
64678;SDS011;51094;53.864;27.676;2022-10-14T05:26:09;3.13;;;3.05;;
64678;SDS011;51094;53.864;27.676;2022-10-14T05:28:38;3.30;;;3.20;;
64678;SDS011;51094;53.864;27.676;2022-10-14T05:31:06;3.45;;;3.35;;
64678;SDS011;51094;53.864;27.676;2022-10-14T05:33:39;3.28;;;3.20;;
64678;SDS011;51094;53.864;27.676;2022-10-14T05:36:06;3.55;;;3.45;;
64678;SDS011;51094;53.864;27.676;2022-10-14T05:38:34;3.72;;;3.63;;
64678;SDS011;51094;53.864;27.676;2022-10-14T05:41:01;3.65;;;3.55;;
64678;SDS011;51094;53.864;27.676;2022-10-14T05:43:28;3.38;;;3.28;;
64678;SDS011;51094;53.864;27.676;2022-10-14T05:46:00;3.40;;;3.30;;
64678;SDS011;51094;53.864;27.676;2022-10-14T05:48:29;3.38;;;3.28;;
64678;SDS011;51094;53.864;27.676;2022-10-14T05:51:00;3.45;;;3.40;;
64678;SDS011;51094;53.864;27.676;2022-10-14T05:53:31;3.28;;;3.17;;
64678;SDS011;51094;53.864;27.676;2022-10-14T05:56:05;3.28;;;3.17;;
64678;SDS011;51094;53.864;27.676;2022-10-14T05:58:36;4.05;;;3.95;;
64678;SDS011;51094;53.864;27.676;2022-10-14T06:01:05;3.65;;;3.55;;
64678;SDS011;51094;53.864;27.676;2022-10-14T06:03:33;3.20;;;3.10;;
64678;SDS011;51094;53.864;27.676;2022-10-14T06:06:00;3.97;;;3.88;;
64678;SDS011;51094;53.864;27.676;2022-10-14T06:08:28;4.28;;;4.18;;
64678;SDS011;51094;53.864;27.676;2022-10-14T06:10:55;4.65;;;4.55;;
64678;SDS011;51094;53.864;27.676;2022-10-14T06:13:21;5.60;;;5.50;;
64678;SDS011;51094;53.864;27.676;2022-10-14T06:15:50;5.95;;;5.78;;
64678;SDS011;51094;53.864;27.676;2022-10-14T06:18:16;5.28;;;5.18;;
64678;SDS011;51094;53.864;27.676;2022-10-14T06:20:43;5.57;;;5.38;;
64678;SDS011;51094;53.864;27.676;2022-10-14T06:23:16;6.53;;;6.28;;
64678;SDS011;51094;53.864;27.676;2022-10-14T06:25:43;6.05;;;5.88;;
64678;SDS011;51094;53.864;27.676;2022-10-14T06:28:09;5.82;;;5.63;;
64678;SDS011;51094;53.864;27.676;2022-10-14T06:30:36;6.05;;;5.85;;
64678;SDS011;51094;53.864;27.676;2022-10-14T06:33:03;6.50;;;6.40;;
64678;SDS011;51094;53.864;27.676;2022-10-14T06:35:30;5.90;;;5.80;;
64678;SDS011;51094;53.864;27.676;2022-10-14T06:37:56;4.55;;;4.45;;
64678;SDS011;51094;53.864;27.676;2022-10-14T06:40:23;4.38;;;4.28;;
64678;SDS011;51094;53.864;27.676;2022-10-14T06:42:50;4.05;;;3.95;;
64678;SDS011;51094;53.864;27.676;2022-10-14T06:45:18;3.90;;;3.80;;
64678;SDS011;51094;53.864;27.676;2022-10-14T06:47:45;3.90;;;3.80;;
64678;SDS011;51094;53.864;27.676;2022-10-14T06:50:12;3.83;;;3.72;;
64678;SDS011;51094;53.864;27.676;2022-10-14T06:52:38;4.00;;;3.90;;
64678;SDS011;51094;53.864;27.676;2022-10-14T06:55:05;3.65;;;3.55;;
64678;SDS011;51094;53.864;27.676;2022-10-14T06:57:32;3.88;;;3.78;;
64678;SDS011;51094;53.864;27.676;2022-10-14T06:59:58;4.10;;;4.00;;
64678;SDS011;51094;53.864;27.676;2022-10-14T07:02:25;4.13;;;4.03;;
64678;SDS011;51094;53.864;27.676;2022-10-14T07:04:51;4.45;;;4.35;;
64678;SDS011;51094;53.864;27.676;2022-10-14T07:07:18;4.43;;;4.32;;
64678;SDS011;51094;53.864;27.676;2022-10-14T07:09:45;4.47;;;4.28;;
64678;SDS011;51094;53.864;27.676;2022-10-14T07:12:11;5.00;;;4.90;;
64678;SDS011;51094;53.864;27.676;2022-10-14T07:14:38;4.75;;;4.65;;
64678;SDS011;51094;53.864;27.676;2022-10-14T07:17:06;4.55;;;4.45;;
64678;SDS011;51094;53.864;27.676;2022-10-14T07:19:34;5.47;;;5.38;;
64678;SDS011;51094;53.864;27.676;2022-10-14T07:22:00;5.85;;;5.75;;
64678;SDS011;51094;53.864;27.676;2022-10-14T07:24:27;5.55;;;5.45;;
64678;SDS011;51094;53.864;27.676;2022-10-14T07:26:53;6.00;;;5.90;;
64678;SDS011;51094;53.864;27.676;2022-10-14T07:29:20;6.63;;;6.43;;
64678;SDS011;51094;53.864;27.676;2022-10-14T07:31:46;6.88;;;6.68;;
64678;SDS011;51094;53.864;27.676;2022-10-14T07:34:13;7.60;;;7.40;;
64678;SDS011;51094;53.864;27.676;2022-10-14T07:36:39;7.43;;;7.22;;
64678;SDS011;51094;53.864;27.676;2022-10-14T07:39:06;8.60;;;8.40;;
64678;SDS011;51094;53.864;27.676;2022-10-14T07:41:33;8.75;;;8.55;;
64678;SDS011;51094;53.864;27.676;2022-10-14T07:44:01;8.50;;;8.30;;
64678;SDS011;51094;53.864;27.676;2022-10-14T07:46:31;8.15;;;7.95;;
64678;SDS011;51094;53.864;27.676;2022-10-14T07:49:01;7.43;;;7.22;;
64678;SDS011;51094;53.864;27.676;2022-10-14T07:51:34;5.78;;;5.68;;
64678;SDS011;51094;53.864;27.676;2022-10-14T07:54:03;6.10;;;6.00;;
64678;SDS011;51094;53.864;27.676;2022-10-14T07:56:30;6.50;;;6.30;;
64678;SDS011;51094;53.864;27.676;2022-10-14T07:58:57;7.18;;;6.97;;
64678;SDS011;51094;53.864;27.676;2022-10-14T08:01:24;7.13;;;6.93;;
64678;SDS011;51094;53.864;27.676;2022-10-14T08:03:50;6.70;;;6.50;;
64678;SDS011;51094;53.864;27.676;2022-10-14T08:06:17;5.95;;;5.80;;
64678;SDS011;51094;53.864;27.676;2022-10-14T08:08:44;6.05;;;5.95;;
64678;SDS011;51094;53.864;27.676;2022-10-14T08:11:18;6.32;;;6.13;;
64678;SDS011;51094;53.864;27.676;2022-10-14T08:13:47;6.47;;;6.28;;
64678;SDS011;51094;53.864;27.676;2022-10-14T08:16:16;6.65;;;6.45;;
64678;SDS011;51094;53.864;27.676;2022-10-14T08:18:48;5.80;;;5.60;;
64678;SDS011;51094;53.864;27.676;2022-10-14T08:21:16;5.60;;;5.40;;
64678;SDS011;51094;53.864;27.676;2022-10-14T08:23:44;4.70;;;4.60;;
64678;SDS011;51094;53.864;27.676;2022-10-14T08:28:54;5.80;;;5.60;;
64678;SDS011;51094;53.864;27.676;2022-10-14T08:31:21;5.60;;;5.40;;
64678;SDS011;51094;53.864;27.676;2022-10-14T08:33:48;5.82;;;5.63;;
64678;SDS011;51094;53.864;27.676;2022-10-14T08:36:15;7.03;;;6.75;;
64678;SDS011;51094;53.864;27.676;2022-10-14T08:38:43;6.43;;;6.22;;
64678;SDS011;51094;53.864;27.676;2022-10-14T08:46:35;5.22;;;5.07;;
64678;SDS011;51094;53.864;27.676;2022-10-14T08:49:20;5.72;;;5.55;;
64678;SDS011;51094;53.864;27.676;2022-10-14T08:52:11;5.63;;;5.50;;
64678;SDS011;51094;53.864;27.676;2022-10-14T08:54:42;7.03;;;6.72;;
64678;SDS011;51094;53.864;27.676;2022-10-14T08:57:13;6.40;;;6.20;;
64678;SDS011;51094;53.864;27.676;2022-10-14T08:59:44;6.78;;;6.53;;
64678;SDS011;51094;53.864;27.676;2022-10-14T09:05:17;5.68;;;5.47;;
64678;SDS011;51094;53.864;27.676;2022-10-14T09:07:47;5.22;;;4.93;;
64678;SDS011;51094;53.864;27.676;2022-10-14T09:10:31;5.85;;;5.63;;
64678;SDS011;51094;53.864;27.676;2022-10-14T09:15:37;4.80;;;4.70;;
64678;SDS011;51094;53.864;27.676;2022-10-14T09:18:19;4.47;;;4.30;;
64678;SDS011;51094;53.864;27.676;2022-10-14T09:20:49;4.07;;;3.97;;
64678;SDS011;51094;53.864;27.676;2022-10-14T09:23:18;4.50;;;4.30;;
64678;SDS011;51094;53.864;27.676;2022-10-14T09:28:21;3.95;;;3.85;;
64678;SDS011;51094;53.864;27.676;2022-10-14T09:30:57;3.90;;;3.80;;
64678;SDS011;51094;53.864;27.676;2022-10-14T09:33:23;3.50;;;3.40;;
64678;SDS011;51094;53.864;27.676;2022-10-14T09:35:52;3.92;;;3.80;;
64678;SDS011;51094;53.864;27.676;2022-10-14T09:38:19;3.70;;;3.60;;
64678;SDS011;51094;53.864;27.676;2022-10-14T09:40:47;3.65;;;3.55;;
64678;SDS011;51094;53.864;27.676;2022-10-14T09:43:18;3.40;;;3.30;;
64678;SDS011;51094;53.864;27.676;2022-10-14T09:51:17;3.50;;;3.40;;
64678;SDS011;51094;53.864;27.676;2022-10-14T09:53:48;3.60;;;3.50;;
64678;SDS011;51094;53.864;27.676;2022-10-14T09:56:26;3.38;;;3.28;;
64678;SDS011;51094;53.864;27.676;2022-10-14T09:58:53;2.90;;;2.80;;
64678;SDS011;51094;53.864;27.676;2022-10-14T10:01:24;3.10;;;3.00;;
64678;SDS011;51094;53.864;27.676;2022-10-14T10:03:53;2.90;;;2.80;;
64678;SDS011;51094;53.864;27.676;2022-10-14T10:06:23;2.58;;;2.47;;
64678;SDS011;51094;53.864;27.676;2022-10-14T10:11:40;2.85;;;2.75;;
64678;SDS011;51094;53.864;27.676;2022-10-14T10:14:21;2.88;;;2.78;;
64678;SDS011;51094;53.864;27.676;2022-10-14T10:19:40;3.15;;;3.05;;
64678;SDS011;51094;53.864;27.676;2022-10-14T10:22:26;2.92;;;2.75;;
64678;SDS011;51094;53.864;27.676;2022-10-14T10:33:00;2.83;;;2.72;;
64678;SDS011;51094;53.864;27.676;2022-10-14T10:35:51;2.67;;;2.58;;
64678;SDS011;51094;53.864;27.676;2022-10-14T10:43:36;2.10;;;2.00;;
64678;SDS011;51094;53.864;27.676;2022-10-14T10:49:35;1.40;;;1.40;;
64678;SDS011;51094;53.864;27.676;2022-10-14T10:52:25;1.30;;;1.30;;
64678;SDS011;51094;53.864;27.676;2022-10-14T10:58:18;1.20;;;1.20;;
64678;SDS011;51094;53.864;27.676;2022-10-14T11:16:01;0.98;;;0.98;;
64678;SDS011;51094;53.864;27.676;2022-10-14T11:39:56;1.00;;;1.00;;
64678;SDS011;51094;53.864;27.676;2022-10-14T11:48:21;1.20;;;1.20;;
64678;SDS011;51094;53.864;27.676;2022-10-14T11:50:55;1.00;;;1.00;;
64678;SDS011;51094;53.864;27.676;2022-10-14T11:53:37;0.90;;;0.90;;
64678;SDS011;51094;53.864;27.676;2022-10-14T11:59:28;1.10;;;1.10;;
64678;SDS011;51094;53.864;27.676;2022-10-14T12:02:10;1.05;;;1.05;;
64678;SDS011;51094;53.864;27.676;2022-10-14T12:05:08;1.10;;;1.10;;
64678;SDS011;51094;53.864;27.676;2022-10-14T12:08:30;1.20;;;1.20;;
64678;SDS011;51094;53.864;27.676;2022-10-14T12:10:57;1.00;;;1.00;;
64678;SDS011;51094;53.864;27.676;2022-10-14T12:13:34;1.00;;;1.00;;
64678;SDS011;51094;53.864;27.676;2022-10-14T12:16:09;1.20;;;1.20;;
64678;SDS011;51094;53.864;27.676;2022-10-14T12:18:40;0.90;;;0.90;;
64678;SDS011;51094;53.864;27.676;2022-10-14T12:23:46;1.20;;;1.20;;
64678;SDS011;51094;53.864;27.676;2022-10-14T12:28:50;1.17;;;1.10;;
64678;SDS011;51094;53.864;27.676;2022-10-14T12:31:20;1.27;;;1.27;;
64678;SDS011;51094;53.864;27.676;2022-10-14T12:34:13;1.50;;;1.45;;
64678;SDS011;51094;53.864;27.676;2022-10-14T12:36:41;1.20;;;1.20;;
64678;SDS011;51094;53.864;27.676;2022-10-14T12:42:13;1.35;;;1.35;;
64678;SDS011;51094;53.864;27.676;2022-10-14T12:47:18;1.63;;;1.60;;
64678;SDS011;51094;53.864;27.676;2022-10-14T12:49:49;1.55;;;1.50;;
64678;SDS011;51094;53.864;27.676;2022-10-14T12:52:20;1.70;;;1.70;;
64678;SDS011;51094;53.864;27.676;2022-10-14T12:54:51;1.42;;;1.42;;
64678;SDS011;51094;53.864;27.676;2022-10-14T12:57:26;1.77;;;1.77;;
64678;SDS011;51094;53.864;27.676;2022-10-14T12:59:56;1.88;;;1.77;;
64678;SDS011;51094;53.864;27.676;2022-10-14T13:05:00;1.63;;;1.60;;
64678;SDS011;51094;53.864;27.676;2022-10-14T13:10:26;2.28;;;2.17;;
64678;SDS011;51094;53.864;27.676;2022-10-14T13:12:59;7.22;;;7.03;;
64678;SDS011;51094;53.864;27.676;2022-10-14T13:16:09;1.55;;;1.55;;
64678;SDS011;51094;53.864;27.676;2022-10-14T13:21:51;1.88;;;1.88;;
64678;SDS011;51094;53.864;27.676;2022-10-14T13:24:05;1.80;;;1.73;;
64678;SDS011;51094;53.864;27.676;2022-10-14T13:26:55;2.58;;;2.55;;
64678;SDS011;51094;53.864;27.676;2022-10-14T13:29:52;1.77;;;1.77;;
64678;SDS011;51094;53.864;27.676;2022-10-14T13:32:32;1.85;;;1.75;;
64678;SDS011;51094;53.864;27.676;2022-10-14T13:38:03;2.15;;;2.13;;
64678;SDS011;51094;53.864;27.676;2022-10-14T13:40:33;2.20;;;2.10;;
64678;SDS011;51094;53.864;27.676;2022-10-14T13:43:07;1.98;;;1.88;;
64678;SDS011;51094;53.864;27.676;2022-10-14T13:45:42;2.13;;;2.03;;
64678;SDS011;51094;53.864;27.676;2022-10-14T13:48:12;2.42;;;2.42;;
64678;SDS011;51094;53.864;27.676;2022-10-14T13:50:42;1.70;;;1.70;;
64678;SDS011;51094;53.864;27.676;2022-10-14T13:53:13;1.90;;;1.80;;
64678;SDS011;51094;53.864;27.676;2022-10-14T13:55:43;1.70;;;1.70;;
64678;SDS011;51094;53.864;27.676;2022-10-14T13:58:20;1.83;;;1.75;;
64678;SDS011;51094;53.864;27.676;2022-10-14T14:03:37;2.20;;;2.10;;
64678;SDS011;51094;53.864;27.676;2022-10-14T14:06:12;2.63;;;2.53;;
64678;SDS011;51094;53.864;27.676;2022-10-14T14:08:52;2.60;;;2.50;;
64678;SDS011;51094;53.864;27.676;2022-10-14T14:11:22;1.90;;;1.80;;
64678;SDS011;51094;53.864;27.676;2022-10-14T14:14:07;1.95;;;1.85;;
64678;SDS011;51094;53.864;27.676;2022-10-14T14:16:54;1.50;;;1.50;;
64678;SDS011;51094;53.864;27.676;2022-10-14T14:19:42;1.63;;;1.63;;
64678;SDS011;51094;53.864;27.676;2022-10-14T14:24:45;1.65;;;1.55;;
64678;SDS011;51094;53.864;27.676;2022-10-14T14:27:14;1.48;;;1.48;;
64678;SDS011;51094;53.864;27.676;2022-10-14T14:29:44;1.42;;;1.42;;
64678;SDS011;51094;53.864;27.676;2022-10-14T14:32:17;1.50;;;1.50;;
64678;SDS011;51094;53.864;27.676;2022-10-14T14:34:46;1.85;;;1.80;;
64678;SDS011;51094;53.864;27.676;2022-10-14T14:37:24;1.80;;;1.80;;
64678;SDS011;51094;53.864;27.676;2022-10-14T14:42:44;2.25;;;2.25;;
64678;SDS011;51094;53.864;27.676;2022-10-14T14:47:48;1.92;;;1.92;;
64678;SDS011;51094;53.864;27.676;2022-10-14T14:53:00;2.80;;;2.70;;
64678;SDS011;51094;53.864;27.676;2022-10-14T14:55:41;2.78;;;2.67;;
64678;SDS011;51094;53.864;27.676;2022-10-14T14:58:28;3.10;;;3.00;;
64678;SDS011;51094;53.864;27.676;2022-10-14T15:01:18;3.28;;;3.17;;
64678;SDS011;51094;53.864;27.676;2022-10-14T15:06:40;3.50;;;3.40;;
64678;SDS011;51094;53.864;27.676;2022-10-14T15:09:26;3.22;;;3.13;;
64678;SDS011;51094;53.864;27.676;2022-10-14T15:11:54;3.40;;;3.30;;
64678;SDS011;51094;53.864;27.676;2022-10-14T15:14:27;3.45;;;3.35;;
64678;SDS011;51094;53.864;27.676;2022-10-14T15:16:56;3.55;;;3.45;;
64678;SDS011;51094;53.864;27.676;2022-10-14T15:19:25;3.60;;;3.50;;
64678;SDS011;51094;53.864;27.676;2022-10-14T15:24:55;3.53;;;3.42;;
64678;SDS011;51094;53.864;27.676;2022-10-14T15:27:29;3.92;;;3.80;;
64678;SDS011;51094;53.864;27.676;2022-10-14T15:32:48;3.88;;;3.78;;
64678;SDS011;51094;53.864;27.676;2022-10-14T15:35:17;4.35;;;4.25;;
64678;SDS011;51094;53.864;27.676;2022-10-14T15:37:47;4.13;;;4.03;;
64678;SDS011;51094;53.864;27.676;2022-10-14T15:40:17;5.53;;;5.32;;
64678;SDS011;51094;53.864;27.676;2022-10-14T15:42:46;5.65;;;5.35;;
64678;SDS011;51094;53.864;27.676;2022-10-14T15:45:13;5.38;;;5.18;;
64678;SDS011;51094;53.864;27.676;2022-10-14T15:47:40;5.18;;;4.97;;
64678;SDS011;51094;53.864;27.676;2022-10-14T15:50:10;5.05;;;4.85;;
64678;SDS011;51094;53.864;27.676;2022-10-14T15:52:46;5.22;;;5.03;;
64678;SDS011;51094;53.864;27.676;2022-10-14T15:55:14;5.32;;;5.13;;
64678;SDS011;51094;53.864;27.676;2022-10-14T15:57:45;4.78;;;4.57;;
64678;SDS011;51094;53.864;27.676;2022-10-14T16:00:14;3.92;;;3.83;;
64678;SDS011;51094;53.864;27.676;2022-10-14T16:02:42;3.65;;;3.50;;
64678;SDS011;51094;53.864;27.676;2022-10-14T16:05:09;3.25;;;3.15;;
64678;SDS011;51094;53.864;27.676;2022-10-14T16:07:46;2.65;;;2.55;;
64678;SDS011;51094;53.864;27.676;2022-10-14T16:10:14;3.10;;;3.00;;
64678;SDS011;51094;53.864;27.676;2022-10-14T16:12:43;2.60;;;2.60;;
64678;SDS011;51094;53.864;27.676;2022-10-14T16:17:56;2.58;;;2.50;;
64678;SDS011;51094;53.864;27.676;2022-10-14T16:20:23;2.60;;;2.50;;
64678;SDS011;51094;53.864;27.676;2022-10-14T16:22:51;2.60;;;2.50;;
64678;SDS011;51094;53.864;27.676;2022-10-14T16:25:27;2.38;;;2.28;;
64678;SDS011;51094;53.864;27.676;2022-10-14T16:27:58;2.85;;;2.75;;
64678;SDS011;51094;53.864;27.676;2022-10-14T16:30:26;2.92;;;2.83;;
64678;SDS011;51094;53.864;27.676;2022-10-14T16:32:53;2.97;;;2.88;;
64678;SDS011;51094;53.864;27.676;2022-10-14T16:35:20;3.10;;;3.00;;
64678;SDS011;51094;53.864;27.676;2022-10-14T16:37:47;3.30;;;3.20;;
64678;SDS011;51094;53.864;27.676;2022-10-14T16:40:14;3.40;;;3.30;;
64678;SDS011;51094;53.864;27.676;2022-10-14T16:42:41;3.40;;;3.30;;
64678;SDS011;51094;53.864;27.676;2022-10-14T16:45:08;3.40;;;3.30;;
64678;SDS011;51094;53.864;27.676;2022-10-14T16:47:35;3.40;;;3.30;;
64678;SDS011;51094;53.864;27.676;2022-10-14T16:50:02;3.10;;;3.00;;
64678;SDS011;51094;53.864;27.676;2022-10-14T16:52:29;2.80;;;2.80;;
64678;SDS011;51094;53.864;27.676;2022-10-14T16:55:16;2.85;;;2.85;;
64678;SDS011;51094;53.864;27.676;2022-10-14T16:57:46;3.13;;;3.03;;
64678;SDS011;51094;53.864;27.676;2022-10-14T17:00:14;3.28;;;3.17;;
64678;SDS011;51094;53.864;27.676;2022-10-14T17:02:41;3.10;;;3.00;;
64678;SDS011;51094;53.864;27.676;2022-10-14T17:05:08;2.90;;;2.90;;
64678;SDS011;51094;53.864;27.676;2022-10-14T17:07:36;3.40;;;3.30;;
64678;SDS011;51094;53.864;27.676;2022-10-14T17:10:03;3.40;;;3.30;;
64678;SDS011;51094;53.864;27.676;2022-10-14T17:12:30;3.25;;;3.15;;
64678;SDS011;51094;53.864;27.676;2022-10-14T17:14:57;3.40;;;3.30;;
64678;SDS011;51094;53.864;27.676;2022-10-14T17:17:23;3.45;;;3.35;;
64678;SDS011;51094;53.864;27.676;2022-10-14T17:19:50;3.88;;;3.78;;
64678;SDS011;51094;53.864;27.676;2022-10-14T17:22:19;3.90;;;3.80;;
64678;SDS011;51094;53.864;27.676;2022-10-14T17:24:47;3.75;;;3.65;;
64678;SDS011;51094;53.864;27.676;2022-10-14T17:27:15;5.30;;;5.20;;
64678;SDS011;51094;53.864;27.676;2022-10-14T17:29:45;3.70;;;3.60;;
64678;SDS011;51094;53.864;27.676;2022-10-14T17:32:12;3.90;;;3.80;;
64678;SDS011;51094;53.864;27.676;2022-10-14T17:34:39;3.80;;;3.70;;
64678;SDS011;51094;53.864;27.676;2022-10-14T17:37:06;3.80;;;3.70;;
64678;SDS011;51094;53.864;27.676;2022-10-14T17:39:34;3.97;;;3.88;;